Time;durP1;ratioP1;P1;durP2;ratioP2;P2;SDS_P1;SDS_P2;PMS_P1;PMS_P2;Temp;Humidity;BMP_temperature;BMP_pressure;BME280_temperature;BME280_humidity;BME280_pressure;Samples;Min_cycle;Max_cycle;Signal;HPM_P1;HPM_P2
2021/11/17 02:25:48;;;;;;;64.93;35.08;;;;;;;7.36;78.89;100994.66;4946916;29;20041;-77
2021/11/17 02:28:39;;;;;;;66.75;35.47;;;;;;;7.38;78.58;101003.44;4951194;29;20043;-77
2021/11/17 02:31:32;;;;;;;67.50;36.13;;;;;;;7.36;79.04;101000.81;4935851;29;20035;-77
2021/11/17 02:34:31;;;;;;;62.28;33.45;;;;;;;7.36;78.97;100999.91;4952650;28;20035;-77
2021/11/17 02:37:27;;;;;;;67.00;37.28;;;;;;;7.32;78.81;101009.50;4936865;29;20406;-77
2021/11/17 02:40:03;;;;;;;73.57;39.72;;;;;;;7.34;78.51;100997.28;4951396;29;20035;-77
2021/11/17 02:42:47;;;;;;;69.95;36.25;;;;;;;7.32;79.01;100992.88;4957997;28;20051;-77
2021/11/17 02:45:46;;;;;;;70.55;36.55;;;;;;;7.33;78.86;100990.25;4953356;28;20503;-77
2021/11/17 02:48:30;;;;;;;64.63;34.25;;;;;;;7.38;78.74;100985.06;4958879;28;20042;-76
2021/11/17 02:51:18;;;;;;;73.30;37.13;;;;;;;7.41;78.76;100987.72;4956941;28;20035;-77
2021/11/17 02:54:03;;;;;;;69.18;35.78;;;;;;;7.35;78.83;100988.53;4955964;28;20047;-77
2021/11/17 02:56:34;;;;;;;68.40;35.72;;;;;;;7.34;78.53;100989.41;4956250;28;20130;-77
2021/11/17 02:59:08;;;;;;;71.95;37.72;;;;;;;7.35;79.02;100983.28;4963258;28;20509;-77
2021/11/17 03:01:58;;;;;;;60.25;33.33;;;;;;;7.37;78.91;100980.69;4954985;29;20521;-77
2021/11/17 03:04:44;;;;;;;74.28;36.92;;;;;;;7.37;78.45;100984.19;4962790;28;20142;-77
2021/11/17 03:07:37;;;;;;;65.78;35.92;;;;;;;7.33;79.06;100986.75;4936667;29;20031;-77
2021/11/17 03:10:14;;;;;;;64.47;32.65;;;;;;;7.34;78.97;100988.53;4953329;29;20094;-77
2021/11/17 03:13:17;;;;;;;70.38;36.47;;;;;;;7.37;78.69;100988.56;4954457;28;20043;-77
2021/11/17 03:15:55;;;;;;;64.88;35.25;;;;;;;7.35;79.06;100985.91;4954298;29;20043;-77
2021/11/17 03:18:56;;;;;;;68.38;36.90;;;;;;;7.41;78.62;100988.63;4952500;29;20046;-77
2021/11/17 03:21:38;;;;;;;68.60;34.67;;;;;;;7.56;78.20;100992.31;4932063;29;20113;-77
2021/11/17 03:24:22;;;;;;;63.13;34.83;;;;;;;7.56;77.99;100987.06;4951784;29;20079;-77
2021/11/17 03:27:00;;;;;;;64.53;33.47;;;;;;;7.49;78.38;100990.47;4946893;29;20047;-76
2021/11/17 03:29:55;;;;;;;69.47;36.28;;;;;;;7.47;78.71;100986.09;4946810;29;20063;-76
2021/11/17 03:32:43;;;;;;;63.30;35.15;;;;;;;7.45;78.98;100987.81;4946682;29;20462;-77
2021/11/17 03:35:36;;;;;;;61.25;33.05;;;;;;;7.46;78.88;100991.31;4954660;29;20042;-76
2021/11/17 03:38:32;;;;;;;59.83;34.20;;;;;;;7.54;78.17;100979.16;4946915;29;20043;-77
2021/11/17 03:41:11;;;;;;;59.40;34.10;;;;;;;7.56;78.35;100982.69;4954136;29;20031;-77
2021/11/17 03:44:01;;;;;;;61.30;33.28;;;;;;;7.54;78.07;100976.53;4955161;28;20031;-77
2021/11/17 03:46:45;;;;;;;70.47;34.72;;;;;;;7.55;78.14;100977.44;4955610;28;20031;-77
2021/11/17 03:49:28;;;;;;;60.58;34.25;;;;;;;7.46;78.35;100981.69;4952208;28;20426;-77
2021/11/17 03:52:08;;;;;;;71.72;35.67;;;;;;;7.37;78.32;100973.69;4956258;28;20046;-77
2021/11/17 03:54:58;;;;;;;70.18;35.53;;;;;;;7.29;78.63;100971.81;4953175;28;20397;-77
2021/11/17 03:57:27;;;;;;;74.50;37.15;;;;;;;7.35;79.10;100970.16;4959274;28;20483;-77
2021/11/17 03:59:55;;;;;;;71.07;35.10;;;;;;;7.31;78.77;100971.00;4955135;28;20047;-77
2021/11/17 04:02:38;;;;;;;67.95;35.47;;;;;;;7.29;79.13;100974.44;4957364;28;20035;-77
2021/11/17 04:05:17;;;;;;;62.05;33.75;;;;;;;7.28;79.38;100976.16;4956100;28;20039;-77
2021/11/17 04:08:01;;;;;;;70.57;37.92;;;;;;;7.21;80.20;100971.72;4953960;29;20027;-77
2021/11/17 04:10:39;;;;;;;67.10;33.83;;;;;;;7.29;79.62;100977.06;4955357;28;20453;-77
2021/11/17 04:13:16;;;;;;;72.28;37.72;;;;;;;7.24;80.25;100977.88;4953549;28;20455;-77
2021/11/17 04:15:54;;;;;;;69.13;35.80;;;;;;;7.34;79.70;100973.66;4945869;29;20044;-77
2021/11/17 04:18:46;;;;;;;72.88;37.35;;;;;;;7.34;79.67;100976.28;4953605;29;20082;-77
2021/11/17 04:21:39;;;;;;;78.45;39.08;;;;;;;7.39;79.83;100977.22;4954976;28;20490;-77
2021/11/17 04:24:14;;;;;;;78.35;40.05;;;;;;;7.33;79.72;100971.88;4960195;28;20035;-77
2021/11/17 04:26:45;;;;;;;75.20;39.22;;;;;;;7.31;79.61;100973.63;4956875;28;20034;-77
2021/11/17 04:29:36;;;;;;;69.75;36.33;;;;;;;7.20;80.26;100967.31;4953507;28;20418;-77
2021/11/17 04:33:03;;;;;;;67.38;35.10;;;;;;;7.31;79.83;100965.72;4952523;29;20041;-76
2021/11/17 04:35:59;;;;;;;76.65;38.00;;;;;;;7.32;79.68;100975.38;4955342;28;20118;-76
2021/11/17 04:38:47;;;;;;;76.93;36.80;;;;;;;7.32;79.74;100966.59;4952137;29;20039;-77
2021/11/17 04:41:12;;;;;;;71.75;37.58;;;;;;;7.32;79.96;100971.88;4949650;29;20426;-77
2021/11/17 04:43:40;;;;;;;74.55;37.33;;;;;;;7.33;79.74;100969.25;4953982;28;20045;-77
2021/11/17 04:46:33;;;;;;;63.90;34.08;;;;;;;7.33;80.29;100971.88;4962908;28;20038;-78
2021/11/17 04:49:20;;;;;;;74.00;38.10;;;;;;;7.37;80.32;100964.94;4954277;28;20035;-78
2021/11/17 04:52:17;;;;;;;68.25;35.05;;;;;;;7.37;80.10;100962.31;4953842;29;20073;-77
2021/11/17 04:54:52;;;;;;;79.82;40.95;;;;;;;7.32;80.36;100959.59;4946987;28;20042;-77
2021/11/17 04:57:49;;;;;;;72.68;37.75;;;;;;;7.32;80.54;100961.34;4951388;28;20047;-77
2021/11/17 05:00:25;;;;;;;76.95;36.83;;;;;;;7.30;80.11;100963.94;4955380;28;20042;-78
2021/11/17 05:03:09;;;;;;;68.95;37.13;;;;;;;7.21;80.68;100969.09;4953405;29;20110;-78
2021/11/17 05:06:07;;;;;;;75.70;39.20;;;;;;;7.20;81.18;100977.81;4953471;28;20120;-76
2021/11/17 05:08:41;;;;;;;78.40;41.30;;;;;;;7.21;81.18;100971.72;4950331;28;20101;-77
2021/11/17 05:11:28;;;;;;;78.20;38.10;;;;;;;7.11;82.15;100977.69;4960931;28;20113;-77
2021/11/17 05:14:07;;;;;;;90.43;44.88;;;;;;;7.10;82.55;100966.31;4942593;29;20102;-77
2021/11/17 05:17:03;;;;;;;81.90;41.38;;;;;;;7.05;82.70;100967.06;4936198;29;20494;-76
2021/11/17 05:19:57;;;;;;;74.95;38.78;;;;;;;7.20;82.51;100968.22;4953663;28;20043;-77
2021/11/17 05:22:29;;;;;;;75.78;38.05;;;;;;;7.35;81.64;100972.78;4948475;28;20145;-76
2021/11/17 05:25:30;;;;;;;63.03;36.47;;;;;;;7.36;80.59;100971.94;4960320;28;20086;-76
2021/11/17 05:28:08;;;;;;;67.63;35.80;;;;;;;7.36;81.10;100968.41;4952414;29;20039;-76
2021/11/17 05:30:55;;;;;;;63.78;34.65;;;;;;;7.40;80.49;100971.09;4931623;29;20115;-75
2021/11/17 05:33:33;;;;;;;66.07;35.60;;;;;;;7.44;80.37;100972.91;4943140;29;20130;-76
2021/11/17 05:36:04;;;;;;;65.78;34.83;;;;;;;7.51;80.26;100973.00;4951934;28;20035;-77
2021/11/17 05:38:54;;;;;;;65.35;33.75;;;;;;;7.54;80.14;100973.91;4951963;28;20038;-77
2021/11/17 05:41:25;;;;;;;59.47;32.75;;;;;;;7.55;79.79;100970.44;4934429;29;20043;-77
2021/11/17 05:44:06;;;;;;;66.85;35.08;;;;;;;7.52;79.97;100975.66;4951434;29;20126;-77
2021/11/17 05:46:53;;;;;;;60.33;34.13;;;;;;;7.55;80.16;100980.06;4953076;28;20122;-76
2021/11/17 05:49:33;;;;;;;55.45;32.30;;;;;;;7.58;79.43;100982.72;4952105;29;20102;-76
2021/11/17 05:52:36;;;;;;;59.83;33.75;;;;;;;7.53;79.64;100984.41;4951795;28;20516;-77
2021/11/17 05:55:18;;;;;;;63.63;32.50;;;;;;;7.41;79.93;100972.88;4952632;28;20083;-77
2021/11/17 05:58:02;;;;;;;63.20;33.30;;;;;;;7.50;80.21;100977.38;4954349;28;20053;-77
2021/11/17 06:00:46;;;;;;;56.28;29.42;;;;;;;7.56;79.36;100979.19;4952107;28;20061;-77
2021/11/17 06:03:35;;;;;;;54.83;32.28;;;;;;;7.61;79.31;100980.13;4950775;28;20413;-77
2021/11/17 06:06:01;;;;;;;61.47;32.70;;;;;;;7.57;79.07;100980.94;4959698;28;20046;-77
2021/11/17 06:08:26;;;;;;;60.17;32.75;;;;;;;7.49;79.55;100977.34;4959218;28;20039;-77
2021/11/17 06:10:56;;;;;;;57.25;30.52;;;;;;;7.45;79.49;100979.91;4953992;28;20042;-77
2021/11/17 06:13:22;;;;;;;58.53;31.13;;;;;;;7.41;79.43;100979.84;4952849;28;20123;-77
2021/11/17 06:15:48;;;;;;;60.28;33.22;;;;;;;7.40;79.32;100984.22;4954901;28;20394;-77
2021/11/17 06:18:20;;;;;;;54.40;29.90;;;;;;;7.37;79.72;100986.81;4953558;28;20051;-77
2021/11/17 06:20:47;;;;;;;56.20;29.52;;;;;;;7.34;79.63;100984.16;4951821;28;20190;-77
2021/11/17 06:23:23;;;;;;;56.50;30.92;;;;;;;7.29;80.33;100987.56;4955166;28;20548;-77
2021/11/17 06:25:49;;;;;;;56.90;30.70;;;;;;;7.33;80.39;100987.63;4956406;28;20031;-77
2021/11/17 06:28:20;;;;;;;53.22;30.02;;;;;;;7.36;79.96;100987.69;4960304;28;20117;-77
2021/11/17 06:30:46;;;;;;;53.42;30.33;;;;;;;7.43;79.88;100997.41;4968345;28;20070;-77
2021/11/17 06:33:11;;;;;;;52.92;28.73;;;;;;;7.48;79.72;101005.34;4956467;28;20074;-77
2021/11/17 06:35:39;;;;;;;56.20;32.13;;;;;;;7.53;79.58;101000.16;4956509;28;20069;-77
2021/11/17 06:38:05;;;;;;;53.92;30.98;;;;;;;7.47;79.68;101004.47;4959442;28;20058;-77
2021/11/17 06:40:32;;;;;;;57.40;30.65;;;;;;;7.47;79.75;101004.47;4956843;28;20390;-77
2021/11/17 06:42:58;;;;;;;56.15;31.48;;;;;;;7.39;79.64;101008.72;4956207;28;20130;-77
2021/11/17 06:45:41;;;;;;;60.70;30.65;;;;;;;7.37;80.29;101007.81;4958320;28;20046;-77
2021/11/17 06:48:08;;;;;;;62.60;31.60;;;;;;;7.33;80.25;101010.38;4962713;28;20069;-77
2021/11/17 06:50:35;;;;;;;67.93;37.08;;;;;;;7.32;81.08;101013.88;4960452;28;20094;-77
2021/11/17 06:53:01;;;;;;;76.68;39.97;;;;;;;7.30;81.19;101016.47;4947138;28;20144;-77
2021/11/17 06:55:26;;;;;;;78.88;38.83;;;;;;;7.34;81.15;101012.16;4958779;28;20059;-77
2021/11/17 06:57:52;;;;;;;74.03;39.60;;;;;;;7.35;81.48;101019.16;4958181;28;20035;-77
2021/11/17 07:00:24;;;;;;;67.63;36.28;;;;;;;7.38;81.39;101019.19;4959682;28;20122;-77
2021/11/17 07:02:50;;;;;;;;;;;;;;;7.33;80.88;101015.63;4956332;28;20042;-77
2021/11/17 07:05:17;;;;;;;68.38;33.17;;;;;;;7.40;80.70;101021.00;4957608;28;20009;-77
2021/11/17 07:07:43;;;;;;;63.85;32.53;;;;;;;7.35;80.55;101025.28;4958310;28;20063;-77
2021/11/17 07:10:10;;;;;;;59.20;32.20;;;;;;;7.29;81.56;101024.34;4956992;28;20438;-77
2021/11/17 07:12:36;;;;;;;72.68;38.75;;;;;;;7.32;81.47;101021.75;4955640;28;20117;-78
2021/11/17 07:15:03;;;;;;;63.05;33.47;;;;;;;7.29;81.33;101017.34;4955825;28;20494;-77
2021/11/17 07:17:28;;;;;;;59.15;33.47;;;;;;;7.34;81.51;101020.91;4955640;28;20027;-77
2021/11/17 07:19:54;;;;;;;60.90;33.13;;;;;;;7.42;80.84;101021.91;4955834;28;20511;-77
2021/11/17 07:22:19;;;;;;;66.57;32.70;;;;;;;7.43;80.39;101022.78;4955724;28;20027;-77
2021/11/17 07:24:45;;;;;;;62.20;33.53;;;;;;;7.47;80.63;101029.84;4955510;28;20039;-77
2021/11/17 07:27:14;;;;;;;59.55;32.13;;;;;;;7.47;80.68;101030.72;4954607;29;20035;-77
2021/11/17 07:29:40;;;;;;;57.55;30.08;;;;;;;7.45;80.88;101036.81;4955429;28;20046;-77
2021/11/17 07:32:06;;;;;;;68.43;35.88;;;;;;;7.37;80.66;101030.59;4953618;28;20039;-77
2021/11/17 07:34:31;;;;;;;58.40;31.70;;;;;;;7.37;81.04;101043.72;4956111;28;20034;-77
2021/11/17 07:36:57;;;;;;;56.72;30.55;;;;;;;7.43;80.66;101047.28;4966354;28;20062;-77
2021/11/17 07:39:22;;;;;;;60.35;32.65;;;;;;;7.40;81.11;101049.88;4963012;28;20046;-77
2021/11/17 07:41:50;;;;;;;58.22;30.67;;;;;;;7.42;80.91;101048.16;4947065;29;20042;-77
2021/11/17 07:44:17;;;;;;;54.88;30.60;;;;;;;7.42;80.72;101056.03;4963943;28;20077;-77
2021/11/17 07:46:48;;;;;;;50.97;28.38;;;;;;;7.47;80.37;101050.88;4954296;29;20041;-77
2021/11/17 07:49:15;;;;;;;52.00;29.80;;;;;;;7.38;80.37;101054.22;4955644;28;20430;-77
2021/11/17 07:51:42;;;;;;;64.72;33.10;;;;;;;7.32;81.20;101059.38;4954077;28;20043;-76
2021/11/17 07:54:08;;;;;;;53.47;29.77;;;;;;;7.28;80.78;101060.19;4955102;28;20062;-77
2021/11/17 07:56:35;;;;;;;61.38;32.95;;;;;;;7.30;80.60;101058.47;4955171;28;20406;-77
2021/11/17 07:59:01;;;;;;;57.83;30.98;;;;;;;7.33;80.57;101062.88;4955081;28;20078;-77
2021/11/17 08:01:28;;;;;;;54.58;27.85;;;;;;;7.37;80.70;101049.84;4953683;28;20031;-77
2021/11/17 08:03:53;;;;;;;56.25;29.17;;;;;;;7.45;80.13;101063.09;4954772;28;20090;-77
2021/11/17 08:06:23;;;;;;;48.35;27.30;;;;;;;7.44;80.08;101059.59;4955170;28;20034;-77
2021/11/17 08:08:49;;;;;;;56.53;30.65;;;;;;;7.36;80.38;101048.09;4937761;29;20039;-77
2021/11/17 08:11:16;;;;;;;54.58;27.83;;;;;;;7.40;80.16;101049.88;4954931;28;20039;-77
2021/11/17 08:13:41;;;;;;;53.80;28.67;;;;;;;7.36;80.27;101053.34;4953160;29;20031;-77
2021/11/17 08:16:07;;;;;;;47.10;25.50;;;;;;;7.43;80.62;101047.28;4945769;28;20509;-77
2021/11/17 08:18:33;;;;;;;51.85;27.85;;;;;;;7.44;80.21;101046.44;4954003;28;20071;-77
2021/11/17 08:21:00;;;;;;;53.45;28.17;;;;;;;7.42;80.74;101042.03;4954395;28;20094;-77
2021/11/17 08:23:26;;;;;;;46.47;26.48;;;;;;;7.50;80.13;101044.78;4945955;28;20066;-77
2021/11/17 08:25:52;;;;;;;48.90;26.23;;;;;;;7.41;80.57;101046.41;4950176;28;20073;-77
2021/11/17 08:28:17;;;;;;;53.75;28.85;;;;;;;7.47;80.65;101046.50;4952266;28;20039;-77
2021/11/17 08:30:44;;;;;;;51.55;27.55;;;;;;;7.49;80.21;101045.63;4953413;28;20031;-77
2021/11/17 08:33:11;;;;;;;54.30;27.05;;;;;;;7.36;80.92;101048.09;4953504;28;20035;-77
2021/11/17 08:35:37;;;;;;;63.30;31.65;;;;;;;7.33;80.87;101041.88;4960116;28;20031;-77
2021/11/17 08:38:06;;;;;;;63.95;33.00;;;;;;;7.38;81.26;101048.09;4957684;28;20569;-77
2021/11/17 08:40:41;;;;;;;55.35;29.10;;;;;;;7.46;81.27;101054.34;4954268;28;20050;-77
2021/11/17 08:43:07;;;;;;;47.88;25.23;;;;;;;7.34;80.84;101057.69;4951364;28;20131;-77
2021/11/17 08:45:34;;;;;;;46.45;24.70;;;;;;;7.32;80.93;101050.63;4960447;28;20041;-77
2021/11/17 08:47:59;;;;;;;47.25;25.88;;;;;;;7.31;81.11;101060.25;4954186;28;20093;-77
2021/11/17 08:50:28;;;;;;;61.22;29.33;;;;;;;7.33;81.04;101061.13;4953121;29;20023;-77
2021/11/17 08:52:55;;;;;;;53.92;27.67;;;;;;;7.37;81.68;101057.72;4953257;28;20073;-77
2021/11/17 08:55:23;;;;;;;47.28;24.33;;;;;;;7.39;81.45;101058.63;4953782;28;20043;-77
2021/11/17 08:57:49;;;;;;;46.28;24.50;;;;;;;7.37;81.41;101060.34;4953949;28;20039;-77
2021/11/17 09:00:18;;;;;;;52.40;26.85;;;;;;;7.37;81.86;101065.59;4960823;28;20520;-77
2021/11/17 09:02:46;;;;;;;47.63;23.80;;;;;;;7.30;80.96;101068.97;4953707;28;20078;-77
2021/11/17 09:05:15;;;;;;;46.47;24.05;;;;;;;7.21;82.00;101071.47;4953852;28;20031;-77
2021/11/17 09:07:42;;;;;;;44.20;23.45;;;;;;;7.16;82.34;101065.25;4953904;28;20513;-77
2021/11/17 09:10:11;;;;;;;33.63;18.42;;;;;;;7.10;81.93;101075.63;4953838;28;20122;-77
2021/11/17 09:12:36;;;;;;;36.47;20.60;;;;;;;7.06;82.33;101073.84;4953580;28;20401;-77
2021/11/17 09:15:03;;;;;;;40.03;20.08;;;;;;;6.99;82.65;101076.34;4952712;28;20031;-76
2021/11/17 09:17:28;;;;;;;36.55;19.92;;;;;;;6.99;83.03;101070.22;4953715;28;20042;-77
2021/11/17 09:19:53;;;;;;;36.53;19.65;;;;;;;7.05;82.11;101078.22;4948100;28;20039;-77
2021/11/17 09:22:20;;;;;;;41.08;19.73;;;;;;;6.94;83.45;101071.88;4953789;28;20034;-77
2021/11/17 09:24:46;;;;;;;31.92;17.95;;;;;;;6.99;83.09;101073.72;4953331;28;20035;-77
2021/11/17 09:27:11;;;;;;;28.63;13.95;;;;;;;6.93;82.78;101057.88;4953549;28;20039;-77
2021/11/17 09:29:36;;;;;;;24.42;14.23;;;;;;;6.92;83.23;101066.63;4953619;28;20097;-77
2021/11/17 09:32:03;;;;;;;29.40;15.63;;;;;;;6.89;82.92;101066.56;4952226;29;20062;-77
2021/11/17 09:34:28;;;;;;;26.63;13.40;;;;;;;6.88;82.99;101070.03;4953165;28;20599;-77
2021/11/17 09:36:54;;;;;;;23.90;12.43;;;;;;;6.69;83.36;101062.69;4953379;28;20042;-77
2021/11/17 09:39:19;;;;;;;21.63;11.82;;;;;;;6.72;83.67;101063.63;4952143;28;20053;-77
2021/11/17 09:41:48;;;;;;;21.98;10.85;;;;;;;6.72;82.89;101073.25;4951882;29;20043;-77
2021/11/17 09:44:29;;;;;;;16.20;9.85;;;;;;;6.62;83.68;101066.94;4941993;28;20410;-77
2021/11/17 09:47:00;;;;;;;20.40;10.60;;;;;;;6.65;83.84;101079.22;4955642;28;20038;-77
2021/11/17 09:49:44;;;;;;;18.85;10.07;;;;;;;6.52;84.06;101075.47;4962938;28;20066;-77
2021/11/17 09:52:17;;;;;;;19.67;10.02;;;;;;;6.53;83.94;101075.53;4952809;28;20114;-76
2021/11/17 09:55:16;;;;;;;19.73;10.48;;;;;;;6.55;84.72;101073.81;4971701;28;20034;-77
2021/11/17 09:57:46;;;;;;;18.42;9.65;;;;;;;6.56;84.16;101078.19;4969254;28;20054;-77
2021/11/17 10:00:26;;;;;;;17.02;8.90;;;;;;;6.50;84.27;101078.09;4955553;28;20031;-76
2021/11/17 10:02:57;;;;;;;17.83;10.05;;;;;;;6.53;83.95;101088.63;4953577;28;20027;-77
2021/11/17 10:06:06;;;;;;;18.13;9.73;;;;;;;6.51;84.29;101077.22;4955189;28;20031;-77
2021/11/17 10:13:52;;;;;;;27.52;13.10;;;;;;;6.66;85.16;101078.38;4954515;28;20058;-77
2021/11/17 10:16:18;;;;;;;18.88;9.60;;;;;;;6.67;84.26;101078.41;4962244;28;20050;-77
2021/11/17 10:18:47;;;;;;;30.45;15.65;;;;;;;6.75;84.71;101066.31;4951680;29;20043;-76
2021/11/17 10:21:30;;;;;;;19.77;10.65;;;;;;;6.85;84.30;101064.72;4952853;28;20482;-77
2021/11/17 10:24:06;;;;;;;17.48;8.65;;;;;;;6.92;83.13;101060.50;4952666;28;20031;-77
2021/11/17 10:26:44;;;;;;;14.93;8.95;;;;;;;7.03;83.26;101054.53;4943920;29;20136;-77
2021/11/17 10:29:28;;;;;;;13.40;7.88;;;;;;;6.99;82.35;101057.97;4952894;28;20097;-76
2021/11/17 10:32:19;;;;;;;13.40;8.55;;;;;;;7.05;82.83;101058.94;4952785;28;20446;-76
2021/11/17 10:34:55;;;;;;;14.27;8.35;;;;;;;6.99;82.05;101046.59;4950992;29;20193;-77
2021/11/17 10:37:30;;;;;;;16.60;8.90;;;;;;;7.06;82.37;101051.09;4950646;29;20126;-77
2021/11/17 10:39:55;;;;;;;15.63;9.45;;;;;;;7.09;82.75;101050.25;4967420;28;20556;-76
2021/11/17 10:42:21;;;;;;;16.63;8.85;;;;;;;7.10;82.39;101044.13;4951399;29;20043;-77
2021/11/17 10:45:03;;;;;;;13.10;7.85;;;;;;;7.13;82.25;101049.47;4952570;28;20050;-77
2021/11/17 10:47:28;;;;;;;11.80;7.60;;;;;;;7.15;81.90;101053.88;4956715;28;20035;-76
2021/11/17 10:50:03;;;;;;;17.67;8.70;;;;;;;7.19;82.35;101046.94;4952560;28;20039;-77
2021/11/17 10:52:34;;;;;;;14.38;9.43;;;;;;;7.25;82.42;101039.13;4951132;29;20494;-77
2021/11/17 10:55:02;;;;;;;13.27;8.13;;;;;;;7.18;82.78;101045.19;4952570;28;20047;-77
2021/11/17 10:57:33;;;;;;;11.70;7.55;;;;;;;7.23;82.21;101048.72;4952559;28;20039;-76
2021/11/17 10:59:59;;;;;;;13.80;7.70;;;;;;;7.08;83.50;101040.63;4952306;28;20043;-77
2021/11/17 11:02:28;;;;;;;14.32;7.35;;;;;;;7.14;83.20;101038.97;4951101;28;20098;-77
2021/11/17 11:05:06;;;;;;;13.27;9.05;;;;;;;7.20;83.47;101031.22;4952220;28;20062;-76
2021/11/17 11:07:57;;;;;;;16.20;8.85;;;;;;;7.20;83.46;101032.94;4951949;29;20042;-77
2021/11/17 11:10:29;;;;;;;15.10;8.80;;;;;;;7.21;82.52;101026.84;4953472;29;20039;-77
2021/11/17 11:12:56;;;;;;;13.52;8.73;;;;;;;7.21;82.65;101026.84;4955524;28;20123;-77
2021/11/17 11:15:43;;;;;;;14.98;8.60;;;;;;;7.26;82.93;101022.53;4956020;28;20035;-77
2021/11/17 11:18:09;;;;;;;13.88;8.15;;;;;;;7.41;82.13;101024.50;4968725;28;20043;-77
2021/11/17 11:20:43;;;;;;;12.73;8.30;;;;;;;7.37;81.69;101015.69;4959010;28;20450;-77
2021/11/17 11:23:20;;;;;;;14.35;8.63;;;;;;;7.44;82.68;101012.31;4955385;28;20510;-76
2021/11/17 11:26:10;;;;;;;16.08;9.65;;;;;;;7.58;81.32;101002.00;4952010;29;20505;-77
2021/11/17 11:28:47;;;;;;;13.25;8.00;;;;;;;7.67;81.45;100996.84;4955637;28;20051;-77
2021/11/17 11:31:13;;;;;;;13.20;7.53;;;;;;;7.60;81.07;101004.66;4954205;28;20486;-76
2021/11/17 11:33:48;;;;;;;13.35;7.55;;;;;;;7.57;80.42;101008.13;4953014;29;20046;-76
2021/11/17 11:36:13;;;;;;;11.48;7.18;;;;;;;7.46;79.62;101013.19;4968416;28;20042;-78
2021/11/17 11:38:47;;;;;;;12.50;7.90;;;;;;;7.42;80.21;101014.03;4958203;28;20043;-77
2021/11/17 11:41:27;;;;;;;12.60;7.35;;;;;;;7.47;80.58;101014.09;4955881;28;20035;-77
2021/11/17 11:44:23;;;;;;;13.07;7.65;;;;;;;7.47;79.42;101017.59;4962281;28;20039;-77
2021/11/17 11:46:57;;;;;;;11.13;7.03;;;;;;;7.29;79.54;101025.22;4958496;28;20039;-77
2021/11/17 11:49:55;;;;;;;10.35;6.75;;;;;;;7.25;80.45;101031.25;4952381;28;20027;-77
2021/11/17 11:52:20;;;;;;;9.25;5.25;;;;;;;7.18;80.32;101026.81;4954459;28;20518;-77
2021/11/17 11:54:53;;;;;;;9.02;6.22;;;;;;;7.00;80.50;101033.50;4951088;29;20073;-77
2021/11/17 11:57:43;;;;;;;10.75;7.13;;;;;;;7.01;81.65;101037.00;4952176;29;20656;-77
2021/11/17 12:00:14;;;;;;;17.67;9.82;;;;;;;7.08;82.33;101038.88;4951528;29;20391;-77
2021/11/17 12:02:39;;;;;;;10.02;6.93;;;;;;;7.08;81.27;101043.25;4954512;28;20529;-77
2021/11/17 12:05:08;;;;;;;10.85;6.90;;;;;;;6.96;82.02;101044.78;4954919;28;20081;-77
2021/11/17 12:07:43;;;;;;;13.73;8.80;;;;;;;7.00;82.18;101044.00;4953625;29;20039;-77
2021/11/17 12:10:28;;;;;;;12.05;7.30;;;;;;;6.99;82.57;101042.22;4951421;29;20039;-77
2021/11/17 12:12:53;;;;;;;12.15;6.88;;;;;;;7.02;82.41;101039.66;4952357;29;20038;-77
2021/11/17 12:15:27;;;;;;;9.75;6.95;;;;;;;7.07;82.30;101030.97;4954840;28;20442;-77
2021/11/17 12:18:14;;;;;;;10.95;6.60;;;;;;;7.03;82.81;101035.31;4953647;28;20094;-77
2021/11/17 12:21:04;;;;;;;11.27;7.55;;;;;;;7.10;81.62;101037.19;4954701;28;20047;-77
2021/11/17 12:23:36;;;;;;;15.38;8.40;;;;;;;7.02;80.67;101037.03;4954391;28;20047;-77
2021/11/17 12:26:08;;;;;;;11.52;6.55;;;;;;;6.96;81.53;101042.19;4954623;28;20558;-77
2021/11/17 12:28:48;;;;;;;12.88;8.23;;;;;;;6.97;82.09;101049.22;4953647;28;20039;-77
2021/11/17 12:31:23;;;;;;;16.05;6.90;;;;;;;7.01;81.10;101040.50;4954780;28;20073;-77
2021/11/17 12:34:11;;;;;;;10.50;6.50;;;;;;;6.96;81.76;101052.66;4954212;28;20113;-77
2021/11/17 12:36:48;;;;;;;8.20;6.25;;;;;;;7.08;80.37;101038.88;4954368;28;20039;-77
2021/11/17 12:39:17;;;;;;;9.65;5.80;;;;;;;7.15;80.29;101043.38;4945682;29;20044;-77
2021/11/17 12:41:43;;;;;;;11.30;5.88;;;;;;;7.12;79.45;101043.31;4954416;28;20628;-77
2021/11/17 12:44:21;;;;;;;7.75;5.05;;;;;;;7.11;80.04;101038.06;4953625;28;20129;-77
2021/11/17 12:46:58;;;;;;;6.63;4.53;;;;;;;7.16;79.86;101036.38;4953215;29;20127;-77
2021/11/17 12:49:36;;;;;;;7.65;5.00;;;;;;;7.24;79.11;101047.88;4954175;28;20085;-77
2021/11/17 12:52:11;;;;;;;8.45;5.15;;;;;;;7.14;79.00;101057.34;4956600;28;20035;-77
2021/11/17 12:54:44;;;;;;;8.38;4.38;;;;;;;7.12;78.99;101055.56;4953634;28;20093;-77
2021/11/17 12:57:23;;;;;;;7.47;4.80;;;;;;;7.21;79.42;101055.72;4954051;28;20071;-77
2021/11/17 12:59:53;;;;;;;9.23;5.35;;;;;;;7.27;78.38;101052.31;4953850;28;20482;-78
2021/11/17 13:02:21;;;;;;;6.70;4.50;;;;;;;7.29;78.05;101050.59;4953762;28;20053;-77
2021/11/17 13:04:52;;;;;;;7.55;4.68;;;;;;;7.16;77.47;101055.63;4953526;28;20046;-77
2021/11/17 13:07:53;;;;;;;7.10;4.82;;;;;;;7.10;76.79;101052.00;4954002;28;20063;-77
2021/11/17 13:10:27;;;;;;;8.15;4.55;;;;;;;7.10;76.23;101045.06;4952803;28;20057;-77
2021/11/17 13:13:08;;;;;;;6.78;4.32;;;;;;;7.08;76.02;101032.75;4947836;29;20039;-77
2021/11/17 13:15:42;;;;;;;6.68;4.20;;;;;;;7.13;76.15;101033.72;4953618;28;20046;-77
2021/11/17 13:18:27;;;;;;;8.05;5.35;;;;;;;7.05;75.30;101030.06;4952438;29;20065;-76
2021/11/17 13:21:05;;;;;;;7.35;4.80;;;;;;;7.18;75.08;101029.44;4953725;28;20075;-77
2021/11/17 13:23:34;;;;;;;7.65;4.82;;;;;;;7.24;75.19;101038.25;4958644;28;20031;-77
2021/11/17 13:26:25;;;;;;;8.10;4.30;;;;;;;7.29;74.25;101030.47;4954224;28;20394;-77
2021/11/17 13:28:51;;;;;;;6.90;4.45;;;;;;;7.32;73.21;101034.88;4951947;28;20035;-77
2021/11/17 13:31:34;;;;;;;7.70;5.00;;;;;;;7.17;73.47;101035.50;4953999;28;20462;-77
2021/11/17 13:34:08;;;;;;;6.18;3.92;;;;;;;7.20;72.69;101035.56;4953293;28;20091;-77
2021/11/17 13:36:46;;;;;;;6.85;4.40;;;;;;;7.16;72.83;101041.63;4953474;28;20054;-77
2021/11/17 13:39:14;;;;;;;7.03;4.72;;;;;;;7.07;72.43;101038.84;4953436;28;20066;-78
2021/11/17 13:41:43;;;;;;;5.40;3.90;;;;;;;6.96;72.89;101044.78;4953120;28;20035;-77
2021/11/17 13:44:12;;;;;;;6.20;4.10;;;;;;;7.00;72.60;101043.13;4951904;29;20070;-77
2021/11/17 13:46:52;;;;;;;8.60;5.47;;;;;;;6.98;73.63;101044.84;4953220;28;20171;-77
2021/11/17 13:49:18;;;;;;;6.75;4.25;;;;;;;7.02;73.41;101047.53;4953214;28;20035;-77
2021/11/17 13:51:43;;;;;;;7.45;5.13;;;;;;;7.01;74.16;101045.75;4953112;28;20422;-77
2021/11/17 13:54:08;;;;;;;8.20;5.00;;;;;;;7.01;73.26;101042.25;4951617;29;20624;-77
2021/11/17 13:56:37;;;;;;;8.48;6.28;;;;;;;6.99;73.23;101041.34;4953297;28;20446;-77
2021/11/17 13:59:03;;;;;;;8.18;5.05;;;;;;;7.00;73.38;101043.13;4953017;28;20035;-76
2021/11/17 14:01:28;;;;;;;7.65;5.05;;;;;;;6.97;73.11;101045.72;4953297;28;20027;-77
2021/11/17 14:03:54;;;;;;;6.68;4.22;;;;;;;7.05;73.49;101051.97;4958534;28;20569;-77
2021/11/17 14:06:21;;;;;;;7.18;4.97;;;;;;;7.11;73.13;101048.56;4958129;28;20043;-77
2021/11/17 14:08:47;;;;;;;6.88;4.80;;;;;;;7.07;73.31;101044.97;4961883;28;20121;-77
2021/11/17 14:11:13;;;;;;;7.20;4.93;;;;;;;7.02;72.73;101042.28;4953815;28;20118;-76
2021/11/17 14:13:39;;;;;;;7.22;4.40;;;;;;;7.12;72.42;101038.06;4953521;28;20061;-77
2021/11/17 14:16:05;;;;;;;6.75;4.70;;;;;;;7.19;72.84;101036.44;4952465;28;20102;-77
2021/11/17 14:18:31;;;;;;;8.90;4.95;;;;;;;7.27;72.44;101031.28;4952649;29;20114;-77
2021/11/17 14:20:59;;;;;;;8.85;6.25;;;;;;;7.33;71.83;101021.75;4953529;28;20066;-77
2021/11/17 14:23:25;;;;;;;8.45;5.82;;;;;;;7.40;71.81;101034.13;4958235;28;20070;-77
2021/11/17 14:25:51;;;;;;;8.02;5.72;;;;;;;7.35;71.25;101014.78;4953588;29;20047;-78
2021/11/17 14:28:21;;;;;;;7.03;5.07;;;;;;;7.28;71.70;101023.44;4967216;29;20043;-79